Time;durP1;ratioP1;P1;durP2;ratioP2;P2;SDS_P1;SDS_P2;PMS_P1;PMS_P2;Temp;Humidity;BMP_temperature;BMP_pressure;BME280_temperature;BME280_humidity;BME280_pressure;Samples;Min_cycle;Max_cycle;Signal;HPM_P1;HPM_P2
2022/08/20 00:00:31;;;;;;;9.48;5.20;;;20.30;98.40;;;;;;4932599;29;20038;-60
2022/08/20 00:03:01;;;;;;;7.78;5.28;;;20.30;98.40;;;;;;4933025;29;20035;-61
2022/08/20 00:05:30;;;;;;;8.57;4.68;;;20.30;98.40;;;;;;4933125;29;20114;-60
2022/08/20 00:07:57;;;;;;;7.32;4.28;;;20.30;98.70;;;;;;4932997;29;20019;-60
2022/08/20 00:10:24;;;;;;;9.35;5.05;;;20.20;98.50;;;;;;4933513;29;20027;-60
2022/08/20 00:12:50;;;;;;;10.15;5.63;;;20.10;98.50;;;;;;4932200;29;20024;-60
2022/08/20 00:15:20;;;;;;;12.90;4.78;;;20.10;98.60;;;;;;4934986;29;20036;-60
2022/08/20 00:17:49;;;;;;;7.45;4.82;;;20.20;98.60;;;;;;4936907;29;20767;-60
2022/08/20 00:20:15;;;;;;;8.75;4.82;;;20.10;98.50;;;;;;4951120;29;20110;-60
2022/08/20 00:22:41;;;;;;;10.38;5.32;;;20.10;98.50;;;;;;4936612;29;20032;-60
2022/08/20 00:25:08;;;;;;;8.40;4.70;;;20.10;98.50;;;;;;4936642;29;20038;-60
2022/08/20 00:27:34;;;;;;;8.57;4.50;;;20.10;98.50;;;;;;4950726;29;20028;-61
2022/08/20 00:30:00;;;;;;;9.75;4.82;;;20.10;98.50;;;;;;4936212;29;20058;-60
2022/08/20 00:32:26;;;;;;;10.20;5.53;;;20.10;98.50;;;;;;4936045;29;20050;-60
2022/08/20 00:34:52;;;;;;;9.63;5.28;;;20.10;98.50;;;;;;4935950;29;20110;-60
2022/08/20 00:37:17;;;;;;;11.40;5.55;;;20.10;98.50;;;;;;4936468;29;20118;-60
2022/08/20 00:39:43;;;;;;;11.27;6.00;;;20.10;98.60;;;;;;4936400;29;20031;-60
2022/08/20 00:42:09;;;;;;;10.40;5.80;;;20.10;98.70;;;;;;4935584;29;20020;-60
2022/08/20 00:44:35;;;;;;;9.90;4.78;;;20.10;98.60;;;;;;4951135;29;20102;-60
2022/08/20 00:47:00;;;;;;;9.40;5.05;;;20.10;98.70;;;;;;4935897;29;20536;-60
2022/08/20 00:49:30;;;;;;;9.77;5.22;;;20.10;98.60;;;;;;4950566;29;20055;-60
2022/08/20 00:51:56;;;;;;;8.68;5.18;;;20.10;98.60;;;;;;4936141;29;20036;-60
2022/08/20 00:54:25;;;;;;;9.02;4.63;;;20.20;98.60;;;;;;4951088;29;20079;-64
2022/08/20 00:57:05;;;;;;;11.40;5.43;;;20.20;98.50;;;;;;4935635;29;20036;-64
2022/08/20 00:59:35;;;;;;;11.50;5.72;;;20.20;98.50;;;;;;4936192;29;20023;-60
2022/08/20 01:02:01;;;;;;;8.25;5.00;;;20.20;98.50;;;;;;4935103;29;20028;-60
2022/08/20 01:04:33;;;;;;;10.80;5.82;;;20.20;98.50;;;;;;4936353;29;20540;-60
2022/08/20 01:07:00;;;;;;;9.40;5.70;;;20.20;98.50;;;;;;4935784;29;20407;-61
2022/08/20 01:09:26;;;;;;;11.73;6.40;;;20.20;98.50;;;;;;4935529;29;20042;-60
2022/08/20 01:11:53;;;;;;;11.25;5.80;;;20.10;98.60;;;;;;4935510;29;20379;-60
2022/08/20 01:16:51;;;;;;;9.50;5.88;;;20.10;98.60;;;;;;4934745;29;20095;-60
2022/08/20 01:19:23;;;;;;;11.70;6.68;;;20.00;98.70;;;;;;4950566;29;20804;-60
2022/08/20 01:21:50;;;;;;;10.73;6.20;;;20.10;98.70;;;;;;4950199;29;20110;-63
2022/08/20 01:24:34;;;;;;;13.45;6.13;;;20.10;98.70;;;;;;4935250;29;20055;-60
2022/08/20 01:27:02;;;;;;;10.13;6.00;;;20.10;98.60;;;;;;4935179;29;20036;-63
2022/08/20 01:29:35;;;;;;;11.18;6.00;;;20.10;98.70;;;;;;4935581;29;20024;-62
2022/08/20 01:32:02;;;;;;;9.82;5.20;;;20.00;98.70;;;;;;4933336;29;20048;-63
2022/08/20 01:34:28;;;;;;;9.48;5.22;;;20.00;98.70;;;;;;4935507;29;20508;-61
2022/08/20 01:36:56;;;;;;;11.45;5.65;;;20.00;98.70;;;;;;4934357;29;20047;-60
2022/08/20 01:39:34;;;;;;;9.73;5.45;;;20.00;98.80;;;;;;4949947;29;20385;-60
2022/08/20 01:42:07;;;;;;;9.50;5.55;;;19.90;98.90;;;;;;4935234;29;20040;-60
2022/08/20 01:44:38;;;;;;;9.77;5.47;;;19.90;99.00;;;;;;4934965;29;20015;-60
2022/08/20 01:47:11;;;;;;;8.95;5.47;;;19.90;99.10;;;;;;4935086;29;20020;-60
2022/08/20 01:49:42;;;;;;;12.70;6.78;;;19.90;99.10;;;;;;4934884;29;20126;-60
2022/08/20 01:52:12;;;;;;;9.95;5.35;;;19.90;99.10;;;;;;4934707;29;20028;-60
2022/08/20 01:54:38;;;;;;;11.35;5.95;;;19.90;99.10;;;;;;4935444;29;20465;-60
2022/08/20 01:57:11;;;;;;;8.40;5.05;;;19.90;99.10;;;;;;4934713;29;20079;-60
2022/08/20 01:59:37;;;;;;;9.15;4.68;;;19.90;99.00;;;;;;4934459;29;20020;-61
2022/08/20 02:02:05;;;;;;;12.55;5.95;;;19.90;99.00;;;;;;4934663;29;20027;-61
2022/08/20 02:04:31;;;;;;;11.00;5.88;;;19.90;98.90;;;;;;4935056;29;20071;-61
2022/08/20 02:07:00;;;;;;;13.52;6.05;;;19.90;98.90;;;;;;4933930;29;20428;-61
2022/08/20 02:09:28;;;;;;;11.38;5.82;;;19.90;98.90;;;;;;4934678;29;20422;-63
2022/08/20 02:11:55;;;;;;;9.98;5.07;;;19.90;98.90;;;;;;4934116;29;20019;-61
2022/08/20 02:14:20;;;;;;;9.82;5.22;;;19.90;98.90;;;;;;4934847;29;20031;-68
2022/08/20 02:16:46;;;;;;;9.00;4.82;;;19.90;98.90;;;;;;4934273;29;20031;-60
2022/08/20 02:19:16;;;;;;;9.20;5.78;;;19.90;98.90;;;;;;4934102;29;20476;-62
2022/08/20 02:21:46;;;;;;;7.32;4.65;;;19.80;98.90;;;;;;4934203;29;20023;-62
2022/08/20 02:24:12;;;;;;;10.25;5.38;;;19.70;98.90;;;;;;4934494;29;20026;-60
2022/08/20 02:26:38;;;;;;;9.15;5.68;;;19.70;99.00;;;;;;4933873;29;20481;-65
2022/08/20 02:29:09;;;;;;;8.27;5.38;;;19.60;99.20;;;;;;4934305;29;20031;-61
2022/08/20 02:31:36;;;;;;;10.48;6.57;;;19.50;99.30;;;;;;4934752;29;20377;-63
2022/08/20 02:34:04;;;;;;;11.18;6.18;;;19.40;99.40;;;;;;4933067;29;20126;-60
2022/08/20 02:36:31;;;;;;;11.70;6.25;;;19.40;99.40;;;;;;4934747;29;20144;-60
2022/08/20 02:38:57;;;;;;;9.35;5.82;;;19.40;99.50;;;;;;4934005;29;20106;-60
2022/08/20 02:41:22;;;;;;;10.32;5.68;;;19.30;99.50;;;;;;4933480;29;20106;-61
2022/08/20 02:43:50;;;;;;;9.98;5.75;;;19.40;99.50;;;;;;4933757;29;20358;-65
2022/08/20 02:46:20;;;;;;;8.65;4.85;;;19.40;99.40;;;;;;4934341;29;20197;-63
2022/08/20 02:48:46;;;;;;;9.43;5.22;;;19.40;99.40;;;;;;4948002;29;20536;-62
2022/08/20 02:51:11;;;;;;;10.10;5.65;;;19.40;99.40;;;;;;4934286;29;20127;-60
2022/08/20 02:53:40;;;;;;;11.48;5.80;;;19.40;99.40;;;;;;4934127;29;20433;-60
2022/08/20 02:56:08;;;;;;;12.20;6.18;;;19.40;99.40;;;;;;4933352;29;20043;-59
2022/08/20 02:58:34;;;;;;;9.65;5.68;;;19.40;99.50;;;;;;4934158;29;20078;-60
2022/08/20 03:01:00;;;;;;;10.85;5.95;;;19.30;99.50;;;;;;4933603;29;20065;-60
2022/08/20 03:03:26;;;;;;;9.93;5.60;;;19.30;99.60;;;;;;4933553;29;20111;-59
2022/08/20 03:05:55;;;;;;;10.98;5.47;;;19.20;99.60;;;;;;4933922;29;20467;-60
2022/08/20 03:08:21;;;;;;;9.98;5.25;;;19.20;99.70;;;;;;4931841;29;20028;-63
2022/08/20 03:10:48;;;;;;;10.65;5.75;;;19.10;99.70;;;;;;4933596;29;20037;-61
2022/08/20 03:13:14;;;;;;;9.65;6.15;;;19.10;99.80;;;;;;4933680;29;20401;-64
2022/08/20 03:15:45;;;;;;;9.63;5.85;;;19.00;99.80;;;;;;4933345;29;20020;-66
2022/08/20 03:18:12;;;;;;;9.88;5.20;;;19.00;99.80;;;;;;4933840;29;20039;-61
2022/08/20 03:20:38;;;;;;;12.18;6.18;;;18.90;99.80;;;;;;4933875;29;20024;-60
2022/08/20 03:23:04;;;;;;;8.77;4.97;;;18.90;99.90;;;;;;4932814;29;20400;-62
2022/08/20 03:25:30;;;;;;;10.98;5.50;;;18.90;99.90;;;;;;4933929;29;20218;-60
2022/08/20 03:27:56;;;;;;;10.63;4.88;;;18.90;99.90;;;;;;4933282;29;20505;-62
2022/08/20 03:30:24;;;;;;;10.25;5.60;;;18.80;99.90;;;;;;4932758;29;20028;-61
2022/08/20 03:32:50;;;;;;;11.15;5.50;;;18.80;99.90;;;;;;4933156;29;20075;-61
2022/08/20 03:35:17;;;;;;;9.52;5.53;;;18.80;99.90;;;;;;4933135;29;20139;-60
2022/08/20 03:37:43;;;;;;;9.93;5.43;;;18.80;99.90;;;;;;4947424;29;20023;-60
2022/08/20 03:40:13;;;;;;;11.30;6.30;;;18.70;99.90;;;;;;4933351;29;20016;-60
2022/08/20 03:42:39;;;;;;;10.88;6.13;;;18.70;99.90;;;;;;4933623;29;20038;-61
2022/08/20 03:45:07;;;;;;;11.20;6.30;;;18.70;99.90;;;;;;4932684;29;20090;-61
2022/08/20 03:47:33;;;;;;;10.63;6.35;;;18.70;99.90;;;;;;4933244;29;20031;-63
2022/08/20 03:49:59;;;;;;;8.77;5.10;;;18.70;99.90;;;;;;4932983;29;20099;-61
2022/08/20 03:52:27;;;;;;;8.63;5.00;;;18.70;99.90;;;;;;4932362;29;20596;-61
2022/08/20 03:54:53;;;;;;;7.55;4.47;;;18.70;99.90;;;;;;4933211;29;20019;-62
2022/08/20 03:57:18;;;;;;;6.38;4.15;;;18.70;99.90;;;;;;4932953;29;20439;-60
2022/08/20 03:59:44;;;;;;;5.72;3.25;;;18.80;99.90;;;;;;4933075;29;20020;-62
2022/08/20 04:02:10;;;;;;;5.55;3.50;;;18.80;99.90;;;;;;4933183;29;20393;-65
2022/08/20 04:04:37;;;;;;;6.43;3.83;;;18.80;99.90;;;;;;4932978;29;20052;-64
2022/08/20 04:07:15;;;;;;;5.47;3.00;;;18.80;99.90;;;;;;4933319;29;20492;-64
2022/08/20 04:09:42;;;;;;;7.68;3.78;;;18.80;99.90;;;;;;4932899;29;20114;-62
2022/08/20 04:12:11;;;;;;;10.65;4.43;;;18.70;99.90;;;;;;4932463;29;20016;-62
2022/08/20 04:14:37;;;;;;;9.05;3.85;;;18.80;99.90;;;;;;4948047;29;20031;-62
2022/08/20 04:17:05;;;;;;;7.82;3.97;;;18.80;99.90;;;;;;4932724;29;20036;-62
2022/08/20 04:19:32;;;;;;;8.05;4.38;;;18.80;99.90;;;;;;4932713;29;20016;-62
2022/08/20 04:21:58;;;;;;;7.72;4.40;;;18.80;99.90;;;;;;4932934;29;20023;-62
2022/08/20 04:24:26;;;;;;;7.05;4.05;;;18.80;99.90;;;;;;4933092;29;20036;-62
2022/08/20 04:26:52;;;;;;;7.47;4.03;;;18.70;99.90;;;;;;4932263;29;20034;-63
2022/08/20 04:29:18;;;;;;;9.07;4.15;;;18.60;99.90;;;;;;4950632;28;20024;-62
2022/08/20 04:31:43;;;;;;;5.63;3.63;;;18.60;99.90;;;;;;4950241;28;20023;-62
2022/08/20 04:34:09;;;;;;;8.07;3.80;;;18.60;99.90;;;;;;4951050;28;20047;-63
2022/08/20 04:36:35;;;;;;;7.32;4.50;;;18.60;99.90;;;;;;4951928;28;20090;-61
2022/08/20 04:39:00;;;;;;;8.73;4.63;;;18.60;99.90;;;;;;4951512;28;20019;-64
2022/08/20 04:41:26;;;;;;;6.30;4.15;;;18.60;99.90;;;;;;4951394;28;20122;-64
2022/08/20 04:43:54;;;;;;;9.20;4.93;;;18.70;99.90;;;;;;4951629;28;20079;-62
2022/08/20 04:46:22;;;;;;;8.68;4.90;;;18.70;99.90;;;;;;4951846;28;20166;-62
2022/08/20 04:48:48;;;;;;;9.10;5.65;;;18.70;99.90;;;;;;4951125;28;20027;-61
2022/08/20 04:51:13;;;;;;;8.23;4.65;;;18.80;99.90;;;;;;4951939;28;20089;-62
2022/08/20 04:53:40;;;;;;;8.38;5.35;;;18.80;99.90;;;;;;4951080;28;20440;-62
2022/08/20 04:56:06;;;;;;;8.15;5.20;;;18.90;99.80;;;;;;4950998;28;20031;-62
2022/08/20 04:58:36;;;;;;;9.45;5.03;;;19.00;99.80;;;;;;4951930;28;20661;-61
2022/08/20 05:01:11;;;;;;;10.52;5.53;;;19.00;99.70;;;;;;4950926;28;20031;-61
2022/08/20 05:03:38;;;;;;;11.40;5.93;;;19.10;99.70;;;;;;4955415;28;20121;-61
2022/08/20 05:06:06;;;;;;;10.38;5.70;;;19.10;99.60;;;;;;4955072;28;20469;-61
2022/08/20 05:08:32;;;;;;;9.45;5.45;;;19.10;99.70;;;;;;4954317;28;20028;-61
2022/08/20 05:10:58;;;;;;;12.02;6.20;;;19.10;99.70;;;;;;4955084;28;20045;-60
2022/08/20 05:13:25;;;;;;;11.10;6.13;;;19.10;99.70;;;;;;4954680;28;20023;-61
2022/08/20 05:15:51;;;;;;;8.52;5.40;;;19.10;99.70;;;;;;4954149;28;20126;-63
2022/08/20 05:18:20;;;;;;;10.00;5.90;;;19.10;99.70;;;;;;4955247;28;20027;-61
2022/08/20 05:20:47;;;;;;;8.73;5.78;;;19.10;99.70;;;;;;4954666;28;20118;-62
2022/08/20 05:23:14;;;;;;;9.73;6.03;;;19.20;99.60;;;;;;4953044;29;20460;-63
2022/08/20 05:25:42;;;;;;;11.55;5.93;;;19.20;99.60;;;;;;4954728;28;20027;-62
2022/08/20 05:28:17;;;;;;;10.02;6.03;;;19.20;99.50;;;;;;4954885;28;20559;-62
2022/08/20 05:30:45;;;;;;;11.32;6.30;;;19.20;99.50;;;;;;4954350;28;20030;-65
2022/08/20 05:33:16;;;;;;;9.82;5.43;;;19.30;99.50;;;;;;4953154;29;20047;-61
2022/08/20 05:35:42;;;;;;;13.05;6.68;;;19.20;99.40;;;;;;4954413;28;20553;-62
2022/08/20 05:38:10;;;;;;;9.88;6.20;;;19.20;99.50;;;;;;4952856;29;20027;-64
2022/08/20 05:40:37;;;;;;;10.30;6.35;;;19.20;99.50;;;;;;4953214;29;20038;-61
2022/08/20 05:43:03;;;;;;;14.95;6.40;;;19.20;99.50;;;;;;4953539;28;20074;-64
2022/08/20 05:45:30;;;;;;;9.75;6.32;;;19.20;99.50;;;;;;4954645;28;20027;-63
2022/08/20 05:47:57;;;;;;;9.38;5.50;;;19.20;99.50;;;;;;4954238;28;20034;-62
2022/08/20 05:50:23;;;;;;;9.07;5.82;;;19.20;99.40;;;;;;4953727;28;20023;-64
2022/08/20 05:52:48;;;;;;;11.35;6.20;;;19.20;99.50;;;;;;4953774;28;20034;-65
2022/08/20 05:55:14;;;;;;;9.60;5.80;;;19.20;99.60;;;;;;4954716;28;20085;-67
2022/08/20 05:57:39;;;;;;;10.63;6.00;;;19.10;99.90;;;;;;4953500;28;20183;-62
2022/08/20 06:00:10;;;;;;;10.73;5.78;;;19.10;99.80;;;;;;4953835;28;20469;-63
2022/08/20 06:05:21;;;;;;;11.18;6.90;;;19.00;99.80;;;;;;4940292;29;20047;-65
2022/08/20 06:07:46;;;;;;;11.43;5.93;;;19.00;99.90;;;;;;4934519;29;20017;-66
2022/08/20 06:10:12;;;;;;;7.88;5.35;;;19.00;99.90;;;;;;4935147;29;20440;-65
2022/08/20 06:12:38;;;;;;;11.05;5.22;;;19.00;99.90;;;;;;4932712;29;20440;-64
2022/08/20 06:15:05;;;;;;;11.25;5.82;;;19.00;99.90;;;;;;4934654;29;20481;-67
2022/08/20 06:17:32;;;;;;;9.80;5.60;;;19.00;99.90;;;;;;4934874;29;20032;-63
2022/08/20 06:20:05;;;;;;;9.82;5.28;;;19.00;99.90;;;;;;4933699;29;20020;-62
2022/08/20 06:22:32;;;;;;;11.13;5.25;;;19.10;99.90;;;;;;4934731;29;20489;-63
2022/08/20 06:24:57;;;;;;;10.15;5.32;;;19.10;99.90;;;;;;4933945;29;20509;-63
2022/08/20 06:27:23;;;;;;;11.27;6.18;;;19.10;99.90;;;;;;4934265;29;20519;-62
2022/08/20 06:29:50;;;;;;;9.23;5.63;;;19.20;99.90;;;;;;4933963;29;20060;-65
2022/08/20 06:32:16;;;;;;;10.80;5.68;;;19.20;99.80;;;;;;4931111;29;20519;-67
2022/08/20 06:34:42;;;;;;;8.75;5.15;;;19.30;99.80;;;;;;4934079;29;20481;-67
2022/08/20 06:37:22;;;;;;;8.10;5.22;;;19.30;99.80;;;;;;4934674;29;20031;-65
2022/08/20 06:39:49;;;;;;;9.73;5.00;;;19.30;99.80;;;;;;4934196;29;20028;-68
2022/08/20 06:42:15;;;;;;;8.90;6.03;;;19.40;99.70;;;;;;4934522;29;20023;-62
2022/08/20 06:44:41;;;;;;;9.77;5.47;;;19.40;99.60;;;;;;4933029;29;20361;-61
2022/08/20 06:47:06;;;;;;;12.60;6.20;;;19.50;99.50;;;;;;4934416;29;20126;-61
2022/08/20 06:49:35;;;;;;;11.65;5.97;;;19.50;99.40;;;;;;4922209;29;20032;-61
2022/08/20 06:52:03;;;;;;;12.18;5.45;;;19.50;99.30;;;;;;4931088;29;20095;-60
2022/08/20 06:54:29;;;;;;;10.05;5.47;;;19.50;99.30;;;;;;4933902;29;20492;-67
2022/08/20 06:56:54;;;;;;;9.20;5.38;;;19.60;99.20;;;;;;4933433;29;20070;-61
2022/08/20 06:59:20;;;;;;;10.02;6.40;;;19.70;99.20;;;;;;4933334;29;20055;-61
2022/08/20 07:01:48;;;;;;;12.07;5.68;;;19.70;99.50;;;;;;4933548;29;20492;-63
2022/08/20 07:04:14;;;;;;;12.20;5.45;;;19.70;99.20;;;;;;4933558;29;20424;-61
2022/08/20 07:06:41;;;;;;;12.60;7.18;;;19.80;99.20;;;;;;4932931;29;20039;-61
2022/08/20 07:09:07;;;;;;;11.38;6.65;;;19.80;99.10;;;;;;4933460;29;20024;-61
2022/08/20 07:11:34;;;;;;;11.38;5.93;;;19.90;99.10;;;;;;4931093;29;20533;-60
2022/08/20 07:14:00;;;;;;;16.50;7.22;;;19.90;98.90;;;;;;4932393;29;20024;-59
2022/08/20 07:16:26;;;;;;;12.35;6.47;;;19.90;98.80;;;;;;4933670;29;20035;-60
2022/08/20 07:18:51;;;;;;;11.98;6.25;;;20.00;98.80;;;;;;4933373;29;20130;-63
2022/08/20 07:21:17;;;;;;;13.07;7.13;;;20.00;98.60;;;;;;4932842;29;20532;-60
2022/08/20 07:23:43;;;;;;;13.07;7.28;;;20.10;98.20;;;;;;4927865;29;20042;-61
2022/08/20 07:26:09;;;;;;;12.23;5.78;;;20.10;98.10;;;;;;4932867;29;20106;-62
2022/08/20 07:28:35;;;;;;;10.77;6.65;;;20.10;98.00;;;;;;4933246;29;20532;-67
2022/08/20 07:33:44;;;;;;;9.82;6.43;;;20.10;97.50;;;;;;4932635;29;20103;-60
2022/08/20 07:36:11;;;;;;;9.15;5.88;;;20.10;97.40;;;;;;4933248;29;20043;-66
2022/08/20 07:38:38;;;;;;;12.63;5.97;;;20.00;96.90;;;;;;4932696;29;20024;-65
2022/08/20 07:41:11;;;;;;;11.40;5.55;;;19.90;97.10;;;;;;4922487;29;20031;-62
2022/08/20 07:43:38;;;;;;;12.55;6.40;;;19.90;97.40;;;;;;4933555;29;20028;-64
2022/08/20 07:46:08;;;;;;;9.52;5.85;;;19.90;97.40;;;;;;4933447;29;20507;-62
2022/08/20 07:48:38;;;;;;;8.00;5.20;;;19.80;97.30;;;;;;4931969;29;20036;-64
2022/08/20 07:51:05;;;;;;;10.38;5.60;;;19.80;96.90;;;;;;4931752;29;20028;-68
2022/08/20 07:53:33;;;;;;;11.40;5.65;;;19.80;97.00;;;;;;4933706;29;20111;-64
2022/08/20 07:56:01;;;;;;;11.48;5.22;;;19.90;96.60;;;;;;4931701;29;20130;-63
2022/08/20 07:58:27;;;;;;;9.80;4.93;;;19.90;96.00;;;;;;4933037;29;20024;-61
2022/08/20 08:00:52;;;;;;;9.93;4.10;;;19.90;96.20;;;;;;4933000;29;20039;-64
2022/08/20 08:03:18;;;;;;;9.57;4.80;;;20.00;95.80;;;;;;4930737;29;20126;-63
2022/08/20 08:05:47;;;;;;;7.32;3.90;;;20.10;95.60;;;;;;4930091;29;20552;-63
2022/08/20 08:08:18;;;;;;;9.13;4.30;;;20.10;95.60;;;;;;4933382;29;20110;-64
2022/08/20 08:10:47;;;;;;;6.70;3.42;;;20.20;95.50;;;;;;4932064;29;20015;-63
2022/08/20 08:13:13;;;;;;;7.90;3.45;;;20.20;94.80;;;;;;4932855;29;20031;-68
2022/08/20 08:15:45;;;;;;;8.05;3.20;;;20.30;94.00;;;;;;4932605;29;20027;-63
2022/08/20 08:18:15;;;;;;;9.57;3.55;;;20.30;93.30;;;;;;4932705;29;20032;-67
2022/08/20 08:20:43;;;;;;;6.22;2.97;;;20.30;93.10;;;;;;4928111;29;20034;-61
2022/08/20 08:23:13;;;;;;;10.30;3.10;;;20.30;92.90;;;;;;4931998;29;20071;-59
2022/08/20 08:25:41;;;;;;;6.43;2.17;;;20.40;92.50;;;;;;4932692;29;20016;-65
2022/08/20 08:28:10;;;;;;;9.68;2.58;;;20.40;91.70;;;;;;4932715;29;20027;-69
2022/08/20 08:30:37;;;;;;;9.15;2.95;;;20.40;91.20;;;;;;4928448;29;20034;-66
2022/08/20 08:35:46;;;;;;;4.85;1.90;;;20.60;90.80;;;;;;4933825;29;20047;-62
2022/08/20 08:38:12;;;;;;;7.70;2.60;;;20.60;90.70;;;;;;4935403;29;20389;-61
2022/08/20 08:40:39;;;;;;;8.70;2.78;;;20.70;91.10;;;;;;4948921;28;20028;-61
2022/08/20 08:43:05;;;;;;;6.65;2.78;;;20.80;91.20;;;;;;4926304;29;20503;-62
2022/08/20 08:45:44;;;;;;;10.18;3.10;;;20.80;91.30;;;;;;4935972;29;20102;-62
2022/08/20 08:48:16;;;;;;;10.23;3.67;;;20.90;91.10;;;;;;4931714;29;20040;-61
2022/08/20 08:50:45;;;;;;;8.23;3.10;;;21.00;90.70;;;;;;4925640;29;20028;-64
2022/08/20 08:53:20;;;;;;;7.28;3.10;;;21.00;90.50;;;;;;4935013;29;20028;-61
2022/08/20 08:55:46;;;;;;;9.13;3.55;;;21.00;90.40;;;;;;4935578;29;20035;-60
2022/08/20 08:58:12;;;;;;;9.65;3.25;;;21.10;90.40;;;;;;4934541;29;20058;-61
2022/08/20 09:00:38;;;;;;;7.97;3.50;;;21.10;90.20;;;;;;4916848;29;20084;-61
2022/08/20 09:03:28;;;;;;;7.88;3.50;;;21.20;90.20;;;;;;4928822;29;20020;-62
2022/08/20 09:05:58;;;;;;;8.32;3.50;;;21.30;86.90;;;;;;4934853;29;20020;-61
2022/08/20 09:08:31;;;;;;;8.30;3.40;;;21.30;87.30;;;;;;4935743;29;20038;-62
2022/08/20 09:11:03;;;;;;;9.43;4.20;;;21.40;87.50;;;;;;4933998;29;20024;-61
2022/08/20 09:13:28;;;;;;;6.80;3.20;;;21.50;87.20;;;;;;4945182;28;20028;-68
2022/08/20 09:15:54;;;;;;;6.35;2.72;;;21.50;86.40;;;;;;4930608;29;20094;-61
2022/08/20 09:18:19;;;;;;;5.95;2.78;;;21.40;86.70;;;;;;4935131;29;20038;-61
2022/08/20 09:20:45;;;;;;;8.50;3.20;;;21.50;86.70;;;;;;4934518;29;20028;-61
2022/08/20 09:23:10;;;;;;;6.05;2.65;;;21.60;84.90;;;;;;4935217;29;20026;-62
2022/08/20 09:25:36;;;;;;;6.13;2.30;;;21.70;84.80;;;;;;4930663;29;20032;-65
2022/08/20 09:28:02;;;;;;;6.18;1.92;;;21.80;83.60;;;;;;4934615;29;20027;-61
2022/08/20 09:30:28;;;;;;;6.38;2.38;;;22.00;80.70;;;;;;4935723;29;20110;-63
2022/08/20 09:32:53;;;;;;;7.22;2.80;;;22.00;78.20;;;;;;4935950;29;20048;-64
2022/08/20 09:35:19;;;;;;;5.32;1.63;;;22.10;76.30;;;;;;4934911;29;20346;-63
2022/08/20 09:37:45;;;;;;;7.65;2.50;;;22.10;75.00;;;;;;4949891;29;20039;-66
2022/08/20 09:40:11;;;;;;;6.93;2.13;;;22.30;75.70;;;;;;4934482;29;20035;-63
2022/08/20 09:42:37;;;;;;;3.28;1.88;;;22.50;76.40;;;;;;4933869;29;20032;-66
2022/08/20 09:45:04;;;;;;;5.05;2.05;;;22.80;75.90;;;;;;4924540;29;20096;-62
2022/08/20 09:47:29;;;;;;;9.73;1.85;;;23.10;73.80;;;;;;4932461;29;20024;-65
2022/08/20 09:49:55;;;;;;;7.57;1.90;;;23.20;70.70;;;;;;4930503;29;20023;-62
2022/08/20 09:52:22;;;;;;;7.90;1.90;;;23.20;70.70;;;;;;4933920;29;20040;-66
2022/08/20 09:54:49;;;;;;;6.75;1.85;;;23.10;70.60;;;;;;4932097;29;20032;-68
2022/08/20 09:57:15;;;;;;;5.68;2.13;;;23.20;71.30;;;;;;4931998;29;20036;-68
2022/08/20 09:59:41;;;;;;;5.45;1.90;;;23.20;71.20;;;;;;4933692;29;20023;-64
2022/08/20 10:02:07;;;;;;;5.68;1.80;;;23.30;70.90;;;;;;4928735;29;20027;-61
2022/08/20 10:04:32;;;;;;;6.70;1.40;;;23.40;70.60;;;;;;4933300;29;20893;-65
2022/08/20 10:06:58;;;;;;;4.03;1.80;;;23.30;67.70;;;;;;4934481;29;20105;-64
2022/08/20 10:09:24;;;;;;;8.25;1.75;;;23.30;65.60;;;;;;4931683;29;21735;-64
2022/08/20 10:11:49;;;;;;;5.00;1.58;;;23.20;63.80;;;;;;4932284;29;20472;-71
2022/08/20 10:14:15;;;;;;;5.30;1.67;;;23.20;65.00;;;;;;4926715;29;20035;-61
2022/08/20 10:16:41;;;;;;;4.78;1.63;;;23.30;66.10;;;;;;4928543;29;20079;-60
2022/08/20 10:19:06;;;;;;;8.45;2.13;;;23.20;66.50;;;;;;4933078;29;20119;-64
2022/08/20 10:21:32;;;;;;;5.78;1.77;;;23.20;66.20;;;;;;4932883;29;20377;-62
2022/08/20 10:23:58;;;;;;;5.82;1.55;;;23.10;66.80;;;;;;4931536;29;20626;-67
2022/08/20 10:26:23;;;;;;;3.53;1.50;;;23.00;67.10;;;;;;4923485;29;20150;-66
2022/08/20 10:28:49;;;;;;;6.18;1.80;;;22.90;66.70;;;;;;4932243;29;20597;-69
2022/08/20 10:31:15;;;;;;;4.60;1.80;;;22.80;65.90;;;;;;4931367;29;20032;-60
2022/08/20 10:33:41;;;;;;;6.18;1.80;;;22.90;66.40;;;;;;4923382;29;20102;-59
2022/08/20 10:36:12;;;;;;;5.82;1.90;;;23.00;66.40;;;;;;4926214;29;20074;-60
2022/08/20 10:38:38;;;;;;;5.55;1.40;;;23.20;66.30;;;;;;4932453;29;20039;-59
2022/08/20 10:41:04;;;;;;;6.85;1.70;;;23.50;65.90;;;;;;4930995;29;20032;-62
2022/08/20 10:43:29;;;;;;;3.60;1.70;;;23.70;64.80;;;;;;4931777;29;20063;-62
2022/08/20 10:45:55;;;;;;;4.07;1.77;;;23.70;64.80;;;;;;4931862;29;20036;-64
2022/08/20 10:48:21;;;;;;;4.10;1.85;;;23.90;63.70;;;;;;4932351;29;20032;-68
2022/08/20 10:50:47;;;;;;;5.10;2.00;;;24.00;62.10;;;;;;4930989;29;20031;-65
2022/08/20 10:53:12;;;;;;;8.32;1.98;;;24.00;61.60;;;;;;4933036;29;20093;-65
2022/08/20 10:55:38;;;;;;;6.50;2.00;;;24.00;60.10;;;;;;4931208;29;20426;-62
2022/08/20 10:58:05;;;;;;;5.13;1.73;;;24.00;60.30;;;;;;4929347;29;20032;-61
2022/08/20 11:00:31;;;;;;;5.18;1.73;;;23.90;59.70;;;;;;4931145;29;20032;-70
2022/08/20 11:02:57;;;;;;;5.15;1.70;;;23.80;60.30;;;;;;4931387;29;20498;-64
2022/08/20 11:05:22;;;;;;;6.20;1.92;;;23.60;60.70;;;;;;4933308;29;20028;-68
2022/08/20 11:07:48;;;;;;;4.50;1.40;;;23.50;61.10;;;;;;4932462;29;20038;-64
2022/08/20 11:10:14;;;;;;;4.07;1.30;;;23.40;60.30;;;;;;4933298;29;20024;-64
2022/08/20 11:12:40;;;;;;;6.28;1.55;;;23.40;61.10;;;;;;4933188;29;20024;-66
2022/08/20 11:15:06;;;;;;;6.15;1.58;;;23.50;61.00;;;;;;4932921;29;20044;-61
2022/08/20 11:17:34;;;;;;;5.20;1.65;;;23.60;59.40;;;;;;4932731;29;20436;-65
2022/08/20 11:20:01;;;;;;;5.15;1.40;;;23.70;58.30;;;;;;4930936;29;20019;-64
2022/08/20 11:22:27;;;;;;;7.93;2.63;;;23.70;57.10;;;;;;4933147;29;20504;-61
2022/08/20 11:24:53;;;;;;;2.80;1.20;;;23.80;58.20;;;;;;4933117;29;20031;-61
2022/08/20 11:27:26;;;;;;;6.43;1.55;;;24.00;58.10;;;;;;4931691;29;20111;-62
2022/08/20 11:29:52;;;;;;;5.13;1.60;;;24.20;56.70;;;;;;4930471;29;20086;-69
2022/08/20 11:32:19;;;;;;;5.13;1.15;;;24.10;54.70;;;;;;4932750;29;20055;-69
2022/08/20 11:34:45;;;;;;;4.00;1.40;;;24.00;55.60;;;;;;4930654;29;20054;-71
2022/08/20 11:37:13;;;;;;;7.20;1.52;;;23.90;56.30;;;;;;4932412;29;20438;-70
2022/08/20 11:39:39;;;;;;;5.32;1.45;;;24.00;56.20;;;;;;4931732;29;20031;-71
2022/08/20 11:42:05;;;;;;;5.18;1.63;;;24.00;55.90;;;;;;4932497;29;20023;-67
2022/08/20 11:44:30;;;;;;;5.07;1.23;;;23.90;54.90;;;;;;4932852;29;20019;-70
2022/08/20 11:47:02;;;;;;;5.63;1.30;;;23.80;54.70;;;;;;4932278;29;20477;-69
2022/08/20 11:49:29;;;;;;;4.03;1.15;;;23.80;53.60;;;;;;4933391;29;20031;-61
2022/08/20 11:51:54;;;;;;;4.63;1.25;;;23.80;54.40;;;;;;4932771;29;20354;-61
2022/08/20 11:54:20;;;;;;;5.13;1.35;;;23.80;52.90;;;;;;4932418;29;20039;-68
2022/08/20 11:56:45;;;;;;;8.73;1.40;;;23.90;53.20;;;;;;4932777;29;20047;-67
2022/08/20 11:59:11;;;;;;;5.00;1.50;;;24.10;53.20;;;;;;4933095;29;20113;-66
2022/08/20 12:01:37;;;;;;;5.25;1.35;;;24.20;53.90;;;;;;4932376;29;20032;-65
2022/08/20 12:04:03;;;;;;;4.50;1.42;;;24.30;53.40;;;;;;4932484;29;20027;-66
2022/08/20 12:06:28;;;;;;;3.75;1.20;;;24.20;53.30;;;;;;4933331;29;20027;-66
2022/08/20 12:08:54;;;;;;;5.90;1.52;;;24.10;53.50;;;;;;4931849;29;20058;-66
2022/08/20 12:11:19;;;;;;;2.88;1.13;;;24.10;54.30;;;;;;4935308;29;20024;-68
2022/08/20 12:13:45;;;;;;;5.68;1.55;;;24.20;54.10;;;;;;4936253;29;20396;-68
2022/08/20 12:16:11;;;;;;;3.42;1.23;;;24.20;53.80;;;;;;4936231;29;20042;-64
2022/08/20 12:18:36;;;;;;;3.63;1.35;;;24.30;54.40;;;;;;4936720;29;20114;-67
2022/08/20 12:21:02;;;;;;;4.35;1.23;;;24.40;54.10;;;;;;4936357;29;20082;-67
2022/08/20 12:23:27;;;;;;;6.57;1.88;;;24.50;52.90;;;;;;4936221;29;20288;-68
2022/08/20 12:25:53;;;;;;;4.72;1.20;;;24.60;52.60;;;;;;4936427;29;20369;-67
2022/08/20 12:28:19;;;;;;;4.30;1.30;;;24.60;51.50;;;;;;4936706;29;20051;-67
2022/08/20 12:30:44;;;;;;;3.30;1.23;;;24.50;51.60;;;;;;4935701;29;20544;-66
2022/08/20 12:33:10;;;;;;;5.93;1.30;;;24.50;51.60;;;;;;4936268;29;20051;-68
2022/08/20 12:35:35;;;;;;;4.20;1.30;;;24.50;52.40;;;;;;4936577;29;20031;-71
2022/08/20 12:38:05;;;;;;;4.38;1.02;;;24.50;52.60;;;;;;4935679;29;20396;-70
2022/08/20 12:40:31;;;;;;;5.18;1.20;;;24.40;51.10;;;;;;4936424;29;20079;-71
2022/08/20 12:42:57;;;;;;;5.88;1.73;;;24.40;51.00;;;;;;4935779;29;20042;-66
2022/08/20 12:45:22;;;;;;;4.10;1.30;;;24.40;50.50;;;;;;4935741;29;20031;-68
2022/08/20 12:47:48;;;;;;;4.43;1.10;;;24.40;50.90;;;;;;4936014;29;20031;-69
2022/08/20 12:50:20;;;;;;;5.90;1.25;;;24.40;52.10;;;;;;4935474;29;20030;-62
2022/08/20 12:52:47;;;;;;;2.55;1.25;;;24.40;52.00;;;;;;4932662;29;20040;-71